sensor_id;sensor_type;location;lat;lon;timestamp;P1;durP1;ratioP1;P2;durP2;ratioP2
35326;SDS011;21436;52.348;20.928;2023-11-19T00:00:24;89.38;;;34.20;;
35326;SDS011;21436;52.348;20.928;2023-11-19T00:03:12;95.03;;;34.20;;
35326;SDS011;21436;52.348;20.928;2023-11-19T00:05:40;85.80;;;35.17;;
35326;SDS011;21436;52.348;20.928;2023-11-19T00:08:09;86.25;;;32.55;;
35326;SDS011;21436;52.348;20.928;2023-11-19T00:10:36;88.60;;;32.38;;
35326;SDS011;21436;52.348;20.928;2023-11-19T00:13:04;75.72;;;31.42;;
35326;SDS011;21436;52.348;20.928;2023-11-19T00:15:34;82.70;;;30.20;;
35326;SDS011;21436;52.348;20.928;2023-11-19T00:18:02;77.68;;;30.55;;
35326;SDS011;21436;52.348;20.928;2023-11-19T00:20:32;77.97;;;31.17;;
35326;SDS011;21436;52.348;20.928;2023-11-19T00:23:00;90.88;;;33.83;;
35326;SDS011;21436;52.348;20.928;2023-11-19T00:25:29;83.93;;;32.50;;
35326;SDS011;21436;52.348;20.928;2023-11-19T00:27:58;85.00;;;33.33;;
35326;SDS011;21436;52.348;20.928;2023-11-19T00:30:27;81.47;;;31.38;;
35326;SDS011;21436;52.348;20.928;2023-11-19T00:32:55;84.28;;;31.23;;
35326;SDS011;21436;52.348;20.928;2023-11-19T00:35:23;80.65;;;30.83;;
35326;SDS011;21436;52.348;20.928;2023-11-19T00:37:52;81.82;;;31.33;;
35326;SDS011;21436;52.348;20.928;2023-11-19T00:40:21;72.28;;;30.77;;
35326;SDS011;21436;52.348;20.928;2023-11-19T00:42:50;80.18;;;31.02;;
35326;SDS011;21436;52.348;20.928;2023-11-19T00:45:18;69.32;;;28.85;;
35326;SDS011;21436;52.348;20.928;2023-11-19T00:47:47;71.88;;;28.65;;
35326;SDS011;21436;52.348;20.928;2023-11-19T00:50:15;72.40;;;29.45;;
35326;SDS011;21436;52.348;20.928;2023-11-19T00:52:43;79.93;;;30.65;;
35326;SDS011;21436;52.348;20.928;2023-11-19T00:55:11;75.20;;;29.13;;
35326;SDS011;21436;52.348;20.928;2023-11-19T00:57:40;76.05;;;28.67;;
35326;SDS011;21436;52.348;20.928;2023-11-19T01:00:08;74.30;;;28.35;;
35326;SDS011;21436;52.348;20.928;2023-11-19T01:02:48;73.07;;;30.25;;
35326;SDS011;21436;52.348;20.928;2023-11-19T01:05:19;72.63;;;28.77;;
35326;SDS011;21436;52.348;20.928;2023-11-19T01:07:51;79.25;;;27.95;;
35326;SDS011;21436;52.348;20.928;2023-11-19T01:10:21;69.97;;;26.38;;
35326;SDS011;21436;52.348;20.928;2023-11-19T01:12:50;70.05;;;27.25;;
35326;SDS011;21436;52.348;20.928;2023-11-19T01:15:17;74.63;;;28.15;;
35326;SDS011;21436;52.348;20.928;2023-11-19T01:17:49;77.72;;;27.45;;
35326;SDS011;21436;52.348;20.928;2023-11-19T01:20:20;77.03;;;27.40;;
35326;SDS011;21436;52.348;20.928;2023-11-19T01:22:49;75.80;;;27.27;;
35326;SDS011;21436;52.348;20.928;2023-11-19T01:25:17;83.43;;;29.20;;
35326;SDS011;21436;52.348;20.928;2023-11-19T01:27:46;68.68;;;28.35;;
35326;SDS011;21436;52.348;20.928;2023-11-19T01:30:13;80.22;;;28.75;;
35326;SDS011;21436;52.348;20.928;2023-11-19T01:32:41;82.07;;;27.95;;
35326;SDS011;21436;52.348;20.928;2023-11-19T01:35:09;79.15;;;27.38;;
35326;SDS011;21436;52.348;20.928;2023-11-19T01:37:37;82.38;;;29.02;;
35326;SDS011;21436;52.348;20.928;2023-11-19T01:40:05;81.35;;;29.52;;
35326;SDS011;21436;52.348;20.928;2023-11-19T01:42:36;76.57;;;27.83;;
35326;SDS011;21436;52.348;20.928;2023-11-19T01:45:07;83.70;;;29.08;;
35326;SDS011;21436;52.348;20.928;2023-11-19T01:47:35;85.80;;;31.75;;
35326;SDS011;21436;52.348;20.928;2023-11-19T01:50:08;81.50;;;29.48;;
35326;SDS011;21436;52.348;20.928;2023-11-19T01:52:36;80.82;;;29.17;;
35326;SDS011;21436;52.348;20.928;2023-11-19T01:55:06;78.50;;;29.60;;
35326;SDS011;21436;52.348;20.928;2023-11-19T01:57:36;94.28;;;29.95;;
35326;SDS011;21436;52.348;20.928;2023-11-19T02:02:40;84.95;;;30.80;;
35326;SDS011;21436;52.348;20.928;2023-11-19T02:05:10;94.32;;;31.55;;
35326;SDS011;21436;52.348;20.928;2023-11-19T02:07:38;89.90;;;32.38;;
35326;SDS011;21436;52.348;20.928;2023-11-19T02:10:06;92.25;;;31.40;;
35326;SDS011;21436;52.348;20.928;2023-11-19T02:12:35;94.10;;;31.15;;
35326;SDS011;21436;52.348;20.928;2023-11-19T02:15:03;100.18;;;35.80;;
35326;SDS011;21436;52.348;20.928;2023-11-19T02:17:32;88.53;;;29.77;;
35326;SDS011;21436;52.348;20.928;2023-11-19T02:20:01;88.15;;;34.08;;
35326;SDS011;21436;52.348;20.928;2023-11-19T02:22:30;99.90;;;35.97;;
35326;SDS011;21436;52.348;20.928;2023-11-19T02:24:59;104.65;;;34.25;;
35326;SDS011;21436;52.348;20.928;2023-11-19T02:30:24;111.78;;;34.40;;
35326;SDS011;21436;52.348;20.928;2023-11-19T02:32:56;97.63;;;34.03;;
35326;SDS011;21436;52.348;20.928;2023-11-19T02:35:25;96.80;;;32.80;;
35326;SDS011;21436;52.348;20.928;2023-11-19T02:37:58;97.25;;;33.28;;
35326;SDS011;21436;52.348;20.928;2023-11-19T02:40:28;89.35;;;32.72;;
35326;SDS011;21436;52.348;20.928;2023-11-19T02:42:56;100.35;;;37.17;;
35326;SDS011;21436;52.348;20.928;2023-11-19T02:45:25;94.78;;;33.15;;
35326;SDS011;21436;52.348;20.928;2023-11-19T02:47:54;89.93;;;31.63;;
35326;SDS011;21436;52.348;20.928;2023-11-19T02:50:23;99.10;;;33.97;;
35326;SDS011;21436;52.348;20.928;2023-11-19T02:52:54;102.05;;;34.85;;
35326;SDS011;21436;52.348;20.928;2023-11-19T02:55:26;94.15;;;34.67;;
35326;SDS011;21436;52.348;20.928;2023-11-19T02:57:57;91.80;;;32.45;;
35326;SDS011;21436;52.348;20.928;2023-11-19T03:00:27;96.43;;;34.10;;
35326;SDS011;21436;52.348;20.928;2023-11-19T03:03:03;107.28;;;35.15;;
35326;SDS011;21436;52.348;20.928;2023-11-19T03:05:46;94.00;;;34.33;;
35326;SDS011;21436;52.348;20.928;2023-11-19T03:08:15;105.70;;;34.28;;
35326;SDS011;21436;52.348;20.928;2023-11-19T03:10:47;107.93;;;34.78;;
35326;SDS011;21436;52.348;20.928;2023-11-19T03:13:15;100.88;;;33.20;;
35326;SDS011;21436;52.348;20.928;2023-11-19T03:15:47;96.60;;;33.47;;
35326;SDS011;21436;52.348;20.928;2023-11-19T03:18:16;103.20;;;34.53;;
35326;SDS011;21436;52.348;20.928;2023-11-19T03:20:44;93.03;;;33.72;;
35326;SDS011;21436;52.348;20.928;2023-11-19T03:23:13;91.43;;;33.92;;
35326;SDS011;21436;52.348;20.928;2023-11-19T03:25:42;99.03;;;33.55;;
35326;SDS011;21436;52.348;20.928;2023-11-19T03:28:10;108.15;;;34.65;;
35326;SDS011;21436;52.348;20.928;2023-11-19T03:30:38;107.35;;;35.92;;
35326;SDS011;21436;52.348;20.928;2023-11-19T03:33:06;101.60;;;34.30;;
35326;SDS011;21436;52.348;20.928;2023-11-19T03:35:34;109.97;;;35.08;;
35326;SDS011;21436;52.348;20.928;2023-11-19T03:38:02;110.85;;;34.47;;
35326;SDS011;21436;52.348;20.928;2023-11-19T03:40:29;105.88;;;35.63;;
35326;SDS011;21436;52.348;20.928;2023-11-19T03:42:57;109.28;;;38.20;;
35326;SDS011;21436;52.348;20.928;2023-11-19T03:45:26;108.50;;;36.80;;
35326;SDS011;21436;52.348;20.928;2023-11-19T03:47:54;102.40;;;34.30;;
35326;SDS011;21436;52.348;20.928;2023-11-19T03:50:22;114.68;;;36.97;;
35326;SDS011;21436;52.348;20.928;2023-11-19T03:52:51;110.13;;;34.42;;
35326;SDS011;21436;52.348;20.928;2023-11-19T03:55:19;107.22;;;34.78;;
35326;SDS011;21436;52.348;20.928;2023-11-19T03:57:47;112.28;;;37.08;;
35326;SDS011;21436;52.348;20.928;2023-11-19T04:00:16;107.18;;;35.85;;
35326;SDS011;21436;52.348;20.928;2023-11-19T04:02:44;107.97;;;36.58;;
35326;SDS011;21436;52.348;20.928;2023-11-19T04:05:14;121.88;;;37.35;;
35326;SDS011;21436;52.348;20.928;2023-11-19T04:07:42;105.82;;;35.53;;
35326;SDS011;21436;52.348;20.928;2023-11-19T04:10:11;112.88;;;36.63;;
35326;SDS011;21436;52.348;20.928;2023-11-19T04:12:39;120.00;;;36.92;;
35326;SDS011;21436;52.348;20.928;2023-11-19T04:15:08;118.30;;;37.67;;
35326;SDS011;21436;52.348;20.928;2023-11-19T04:17:36;122.25;;;35.55;;
35326;SDS011;21436;52.348;20.928;2023-11-19T04:20:04;106.93;;;37.97;;
35326;SDS011;21436;52.348;20.928;2023-11-19T04:22:32;120.78;;;36.53;;
35326;SDS011;21436;52.348;20.928;2023-11-19T04:25:00;105.20;;;35.22;;
35326;SDS011;21436;52.348;20.928;2023-11-19T04:27:28;114.30;;;37.05;;
35326;SDS011;21436;52.348;20.928;2023-11-19T04:29:57;115.45;;;35.45;;
35326;SDS011;21436;52.348;20.928;2023-11-19T04:32:25;109.45;;;33.95;;
35326;SDS011;21436;52.348;20.928;2023-11-19T04:34:54;112.72;;;34.65;;
35326;SDS011;21436;52.348;20.928;2023-11-19T04:37:21;115.82;;;35.72;;
35326;SDS011;21436;52.348;20.928;2023-11-19T04:39:50;115.47;;;35.72;;
35326;SDS011;21436;52.348;20.928;2023-11-19T04:42:18;114.30;;;35.33;;
35326;SDS011;21436;52.348;20.928;2023-11-19T04:44:47;109.65;;;34.22;;
35326;SDS011;21436;52.348;20.928;2023-11-19T04:47:14;105.38;;;34.28;;
35326;SDS011;21436;52.348;20.928;2023-11-19T04:49:43;118.78;;;35.97;;
35326;SDS011;21436;52.348;20.928;2023-11-19T04:52:11;114.45;;;34.63;;
35326;SDS011;21436;52.348;20.928;2023-11-19T04:54:40;118.10;;;36.55;;
35326;SDS011;21436;52.348;20.928;2023-11-19T04:57:09;115.75;;;35.60;;
35326;SDS011;21436;52.348;20.928;2023-11-19T04:59:38;121.63;;;35.33;;
35326;SDS011;21436;52.348;20.928;2023-11-19T05:02:05;128.10;;;35.67;;
35326;SDS011;21436;52.348;20.928;2023-11-19T05:04:34;120.05;;;37.63;;
35326;SDS011;21436;52.348;20.928;2023-11-19T05:07:03;120.47;;;37.38;;
35326;SDS011;21436;52.348;20.928;2023-11-19T05:09:31;118.50;;;34.55;;
35326;SDS011;21436;52.348;20.928;2023-11-19T05:11:59;118.13;;;38.05;;
35326;SDS011;21436;52.348;20.928;2023-11-19T05:14:27;128.50;;;36.75;;
35326;SDS011;21436;52.348;20.928;2023-11-19T05:16:55;123.45;;;38.13;;
35326;SDS011;21436;52.348;20.928;2023-11-19T05:19:23;112.97;;;35.92;;
35326;SDS011;21436;52.348;20.928;2023-11-19T05:21:50;128.93;;;36.75;;
35326;SDS011;21436;52.348;20.928;2023-11-19T05:24:20;116.20;;;36.63;;
35326;SDS011;21436;52.348;20.928;2023-11-19T05:26:47;120.55;;;36.45;;
35326;SDS011;21436;52.348;20.928;2023-11-19T05:29:15;117.63;;;34.10;;
35326;SDS011;21436;52.348;20.928;2023-11-19T05:31:42;116.75;;;36.33;;
35326;SDS011;21436;52.348;20.928;2023-11-19T05:34:11;114.78;;;34.63;;
35326;SDS011;21436;52.348;20.928;2023-11-19T05:36:42;127.38;;;34.63;;
35326;SDS011;21436;52.348;20.928;2023-11-19T05:39:11;107.90;;;34.15;;
35326;SDS011;21436;52.348;20.928;2023-11-19T05:41:38;122.10;;;35.45;;
35326;SDS011;21436;52.348;20.928;2023-11-19T05:44:06;122.93;;;36.75;;
35326;SDS011;21436;52.348;20.928;2023-11-19T05:46:34;114.25;;;35.63;;
35326;SDS011;21436;52.348;20.928;2023-11-19T05:49:11;107.38;;;34.00;;
35326;SDS011;21436;52.348;20.928;2023-11-19T05:51:40;114.93;;;34.65;;
35326;SDS011;21436;52.348;20.928;2023-11-19T05:54:09;119.13;;;37.38;;
35326;SDS011;21436;52.348;20.928;2023-11-19T05:56:37;116.15;;;33.38;;
35326;SDS011;21436;52.348;20.928;2023-11-19T05:59:05;117.00;;;34.60;;
35326;SDS011;21436;52.348;20.928;2023-11-19T06:01:45;130.48;;;37.63;;
35326;SDS011;21436;52.348;20.928;2023-11-19T06:04:13;115.10;;;37.45;;
35326;SDS011;21436;52.348;20.928;2023-11-19T06:06:42;114.00;;;34.05;;
35326;SDS011;21436;52.348;20.928;2023-11-19T06:09:10;105.95;;;33.85;;
35326;SDS011;21436;52.348;20.928;2023-11-19T06:11:40;117.53;;;33.85;;
35326;SDS011;21436;52.348;20.928;2023-11-19T06:14:08;102.40;;;33.13;;
35326;SDS011;21436;52.348;20.928;2023-11-19T06:16:36;78.07;;;28.10;;
35326;SDS011;21436;52.348;20.928;2023-11-19T06:19:04;72.13;;;24.65;;
35326;SDS011;21436;52.348;20.928;2023-11-19T06:21:32;77.43;;;26.55;;
35326;SDS011;21436;52.348;20.928;2023-11-19T06:24:00;69.57;;;24.15;;
35326;SDS011;21436;52.348;20.928;2023-11-19T06:26:27;64.78;;;23.33;;
35326;SDS011;21436;52.348;20.928;2023-11-19T06:28:56;64.93;;;23.73;;
35326;SDS011;21436;52.348;20.928;2023-11-19T06:31:24;72.35;;;24.35;;
35326;SDS011;21436;52.348;20.928;2023-11-19T06:33:51;66.75;;;23.25;;
35326;SDS011;21436;52.348;20.928;2023-11-19T06:36:20;62.70;;;22.88;;
35326;SDS011;21436;52.348;20.928;2023-11-19T06:38:49;60.38;;;22.63;;
35326;SDS011;21436;52.348;20.928;2023-11-19T06:41:16;54.97;;;20.13;;
35326;SDS011;21436;52.348;20.928;2023-11-19T06:43:44;56.97;;;21.98;;
35326;SDS011;21436;52.348;20.928;2023-11-19T06:46:18;60.47;;;22.15;;
35326;SDS011;21436;52.348;20.928;2023-11-19T06:48:46;61.15;;;22.58;;
35326;SDS011;21436;52.348;20.928;2023-11-19T06:51:14;59.75;;;21.20;;
35326;SDS011;21436;52.348;20.928;2023-11-19T06:53:43;53.80;;;20.10;;
35326;SDS011;21436;52.348;20.928;2023-11-19T06:56:23;57.67;;;20.75;;
35326;SDS011;21436;52.348;20.928;2023-11-19T06:58:52;65.93;;;22.50;;
35326;SDS011;21436;52.348;20.928;2023-11-19T07:01:20;53.75;;;20.25;;
35326;SDS011;21436;52.348;20.928;2023-11-19T07:03:48;51.25;;;19.80;;
35326;SDS011;21436;52.348;20.928;2023-11-19T07:06:16;56.40;;;20.27;;
35326;SDS011;21436;52.348;20.928;2023-11-19T07:08:44;60.17;;;19.38;;
35326;SDS011;21436;52.348;20.928;2023-11-19T07:11:13;47.05;;;18.63;;
35326;SDS011;21436;52.348;20.928;2023-11-19T07:13:44;47.55;;;17.27;;
35326;SDS011;21436;52.348;20.928;2023-11-19T07:16:14;49.00;;;18.15;;
35326;SDS011;21436;52.348;20.928;2023-11-19T07:18:43;44.55;;;17.40;;
35326;SDS011;21436;52.348;20.928;2023-11-19T07:21:11;40.50;;;16.55;;
35326;SDS011;21436;52.348;20.928;2023-11-19T07:23:39;37.88;;;16.27;;
35326;SDS011;21436;52.348;20.928;2023-11-19T07:26:07;38.88;;;16.00;;
35326;SDS011;21436;52.348;20.928;2023-11-19T07:28:38;43.13;;;16.02;;
35326;SDS011;21436;52.348;20.928;2023-11-19T07:31:07;39.97;;;16.02;;
35326;SDS011;21436;52.348;20.928;2023-11-19T07:33:36;37.80;;;14.98;;
35326;SDS011;21436;52.348;20.928;2023-11-19T07:36:03;43.40;;;15.88;;
35326;SDS011;21436;52.348;20.928;2023-11-19T07:38:32;38.60;;;16.10;;
35326;SDS011;21436;52.348;20.928;2023-11-19T07:40:59;32.17;;;14.25;;
35326;SDS011;21436;52.348;20.928;2023-11-19T07:43:28;34.70;;;15.27;;
35326;SDS011;21436;52.348;20.928;2023-11-19T07:45:56;34.47;;;15.75;;
35326;SDS011;21436;52.348;20.928;2023-11-19T07:48:26;34.78;;;14.57;;
35326;SDS011;21436;52.348;20.928;2023-11-19T07:50:54;30.23;;;13.43;;
35326;SDS011;21436;52.348;20.928;2023-11-19T07:53:22;37.05;;;15.25;;
35326;SDS011;21436;52.348;20.928;2023-11-19T07:55:50;32.83;;;14.27;;
35326;SDS011;21436;52.348;20.928;2023-11-19T07:58:19;31.48;;;12.68;;
35326;SDS011;21436;52.348;20.928;2023-11-19T08:00:46;30.08;;;13.82;;
35326;SDS011;21436;52.348;20.928;2023-11-19T08:03:14;32.92;;;12.25;;
35326;SDS011;21436;52.348;20.928;2023-11-19T08:05:43;28.48;;;13.55;;
35326;SDS011;21436;52.348;20.928;2023-11-19T08:08:11;19.00;;;8.77;;
35326;SDS011;21436;52.348;20.928;2023-11-19T08:10:40;20.60;;;9.07;;
35326;SDS011;21436;52.348;20.928;2023-11-19T08:13:08;24.73;;;11.23;;
35326;SDS011;21436;52.348;20.928;2023-11-19T08:15:37;27.77;;;11.95;;
35326;SDS011;21436;52.348;20.928;2023-11-19T08:18:06;28.08;;;13.23;;
35326;SDS011;21436;52.348;20.928;2023-11-19T08:20:34;31.60;;;13.95;;
35326;SDS011;21436;52.348;20.928;2023-11-19T08:23:02;27.35;;;12.82;;
35326;SDS011;21436;52.348;20.928;2023-11-19T08:25:31;26.30;;;12.90;;
35326;SDS011;21436;52.348;20.928;2023-11-19T08:28:01;29.05;;;13.43;;
35326;SDS011;21436;52.348;20.928;2023-11-19T08:30:30;29.33;;;13.23;;
35326;SDS011;21436;52.348;20.928;2023-11-19T08:32:58;27.45;;;12.60;;
35326;SDS011;21436;52.348;20.928;2023-11-19T08:35:30;30.85;;;13.18;;
35326;SDS011;21436;52.348;20.928;2023-11-19T08:37:58;27.65;;;12.32;;
35326;SDS011;21436;52.348;20.928;2023-11-19T08:40:26;29.38;;;13.27;;
35326;SDS011;21436;52.348;20.928;2023-11-19T08:42:54;28.92;;;12.88;;
35326;SDS011;21436;52.348;20.928;2023-11-19T08:45:22;29.75;;;13.90;;
35326;SDS011;21436;52.348;20.928;2023-11-19T08:47:49;31.98;;;14.32;;
35326;SDS011;21436;52.348;20.928;2023-11-19T08:50:18;26.10;;;13.15;;
35326;SDS011;21436;52.348;20.928;2023-11-19T08:52:46;27.08;;;12.10;;
35326;SDS011;21436;52.348;20.928;2023-11-19T08:55:14;25.58;;;12.30;;
35326;SDS011;21436;52.348;20.928;2023-11-19T08:57:42;29.17;;;12.88;;
35326;SDS011;21436;52.348;20.928;2023-11-19T09:00:10;31.15;;;12.18;;
35326;SDS011;21436;52.348;20.928;2023-11-19T09:02:39;26.83;;;12.30;;
35326;SDS011;21436;52.348;20.928;2023-11-19T09:05:07;22.58;;;11.10;;
35326;SDS011;21436;52.348;20.928;2023-11-19T09:07:36;26.77;;;11.35;;
35326;SDS011;21436;52.348;20.928;2023-11-19T09:10:04;26.98;;;11.90;;
35326;SDS011;21436;52.348;20.928;2023-11-19T09:12:32;25.58;;;11.85;;
35326;SDS011;21436;52.348;20.928;2023-11-19T09:15:00;27.70;;;12.35;;
35326;SDS011;21436;52.348;20.928;2023-11-19T09:17:29;25.38;;;11.55;;
35326;SDS011;21436;52.348;20.928;2023-11-19T09:19:57;29.00;;;12.68;;
35326;SDS011;21436;52.348;20.928;2023-11-19T09:22:25;23.70;;;11.77;;
35326;SDS011;21436;52.348;20.928;2023-11-19T09:24:52;24.65;;;11.40;;
35326;SDS011;21436;52.348;20.928;2023-11-19T09:27:21;27.52;;;11.85;;
35326;SDS011;21436;52.348;20.928;2023-11-19T09:29:49;25.73;;;11.52;;
35326;SDS011;21436;52.348;20.928;2023-11-19T09:32:22;22.95;;;10.43;;
35326;SDS011;21436;52.348;20.928;2023-11-19T09:34:50;23.92;;;11.13;;
35326;SDS011;21436;52.348;20.928;2023-11-19T09:37:18;24.10;;;10.32;;
35326;SDS011;21436;52.348;20.928;2023-11-19T09:39:48;21.30;;;9.90;;
35326;SDS011;21436;52.348;20.928;2023-11-19T09:42:16;22.23;;;10.80;;
35326;SDS011;21436;52.348;20.928;2023-11-19T09:44:45;24.30;;;11.15;;
35326;SDS011;21436;52.348;20.928;2023-11-19T09:47:15;25.02;;;11.00;;
35326;SDS011;21436;52.348;20.928;2023-11-19T09:49:44;28.80;;;11.73;;
35326;SDS011;21436;52.348;20.928;2023-11-19T09:52:13;25.75;;;11.38;;
35326;SDS011;21436;52.348;20.928;2023-11-19T09:54:41;24.38;;;11.52;;
35326;SDS011;21436;52.348;20.928;2023-11-19T09:57:09;26.13;;;12.07;;
35326;SDS011;21436;52.348;20.928;2023-11-19T09:59:38;26.15;;;12.27;;
35326;SDS011;21436;52.348;20.928;2023-11-19T10:02:08;30.42;;;13.48;;
35326;SDS011;21436;52.348;20.928;2023-11-19T10:04:38;29.35;;;13.27;;
35326;SDS011;21436;52.348;20.928;2023-11-19T10:07:08;28.60;;;13.32;;
35326;SDS011;21436;52.348;20.928;2023-11-19T10:09:35;30.13;;;12.55;;
35326;SDS011;21436;52.348;20.928;2023-11-19T10:12:04;27.42;;;13.18;;
35326;SDS011;21436;52.348;20.928;2023-11-19T10:14:32;32.63;;;14.38;;
35326;SDS011;21436;52.348;20.928;2023-11-19T10:17:04;31.90;;;14.25;;
35326;SDS011;21436;52.348;20.928;2023-11-19T10:19:35;35.45;;;14.98;;
35326;SDS011;21436;52.348;20.928;2023-11-19T10:22:06;36.13;;;15.13;;
35326;SDS011;21436;52.348;20.928;2023-11-19T10:24:34;32.38;;;14.65;;
35326;SDS011;21436;52.348;20.928;2023-11-19T10:27:08;67.40;;;26.77;;
35326;SDS011;21436;52.348;20.928;2023-11-19T10:29:36;52.30;;;26.60;;
35326;SDS011;21436;52.348;20.928;2023-11-19T10:32:06;42.10;;;20.73;;
35326;SDS011;21436;52.348;20.928;2023-11-19T10:35:04;66.00;;;33.83;;
35326;SDS011;21436;52.348;20.928;2023-11-19T10:37:33;52.88;;;28.08;;
35326;SDS011;21436;52.348;20.928;2023-11-19T10:40:06;56.10;;;28.52;;
35326;SDS011;21436;52.348;20.928;2023-11-19T10:42:38;52.25;;;28.15;;
35326;SDS011;21436;52.348;20.928;2023-11-19T10:45:22;40.65;;;19.73;;
35326;SDS011;21436;52.348;20.928;2023-11-19T10:47:54;41.88;;;19.65;;
35326;SDS011;21436;52.348;20.928;2023-11-19T10:53:17;123.93;;;52.42;;
35326;SDS011;21436;52.348;20.928;2023-11-19T10:55:47;53.30;;;25.10;;
35326;SDS011;21436;52.348;20.928;2023-11-19T10:58:16;45.20;;;21.20;;
35326;SDS011;21436;52.348;20.928;2023-11-19T11:00:48;51.90;;;25.83;;
35326;SDS011;21436;52.348;20.928;2023-11-19T11:03:20;43.15;;;20.75;;
35326;SDS011;21436;52.348;20.928;2023-11-19T11:05:52;45.63;;;21.33;;
35326;SDS011;21436;52.348;20.928;2023-11-19T11:08:21;69.63;;;35.33;;
35326;SDS011;21436;52.348;20.928;2023-11-19T11:10:52;57.78;;;26.75;;
35326;SDS011;21436;52.348;20.928;2023-11-19T11:13:25;51.58;;;24.92;;
35326;SDS011;21436;52.348;20.928;2023-11-19T11:15:56;56.20;;;28.05;;
35326;SDS011;21436;52.348;20.928;2023-11-19T11:18:28;42.90;;;18.73;;
35326;SDS011;21436;52.348;20.928;2023-11-19T11:20:59;63.88;;;30.05;;
35326;SDS011;21436;52.348;20.928;2023-11-19T11:26:40;57.75;;;26.67;;
35326;SDS011;21436;52.348;20.928;2023-11-19T11:29:56;52.40;;;24.48;;
35326;SDS011;21436;52.348;20.928;2023-11-19T11:32:25;44.03;;;21.60;;
35326;SDS011;21436;52.348;20.928;2023-11-19T11:38:13;41.28;;;18.90;;
35326;SDS011;21436;52.348;20.928;2023-11-19T11:40:42;43.63;;;19.05;;
35326;SDS011;21436;52.348;20.928;2023-11-19T11:49:04;37.33;;;18.58;;
35326;SDS011;21436;52.348;20.928;2023-11-19T11:59:49;47.65;;;20.13;;
35326;SDS011;21436;52.348;20.928;2023-11-19T12:02:21;43.90;;;20.08;;
35326;SDS011;21436;52.348;20.928;2023-11-19T12:04:50;39.05;;;17.38;;
35326;SDS011;21436;52.348;20.928;2023-11-19T12:07:21;48.25;;;21.67;;
35326;SDS011;21436;52.348;20.928;2023-11-19T12:09:56;46.95;;;18.80;;
35326;SDS011;21436;52.348;20.928;2023-11-19T12:12:35;47.75;;;21.00;;
35326;SDS011;21436;52.348;20.928;2023-11-19T12:15:06;44.22;;;19.70;;
35326;SDS011;21436;52.348;20.928;2023-11-19T12:17:41;41.08;;;19.10;;
35326;SDS011;21436;52.348;20.928;2023-11-19T12:20:13;42.25;;;19.38;;
35326;SDS011;21436;52.348;20.928;2023-11-19T12:23:00;45.53;;;19.80;;
35326;SDS011;21436;52.348;20.928;2023-11-19T12:25:34;51.15;;;23.50;;
35326;SDS011;21436;52.348;20.928;2023-11-19T12:28:02;80.53;;;34.35;;
35326;SDS011;21436;52.348;20.928;2023-11-19T12:30:32;46.28;;;17.75;;
35326;SDS011;21436;52.348;20.928;2023-11-19T12:33:07;50.63;;;22.00;;
35326;SDS011;21436;52.348;20.928;2023-11-19T12:35:44;49.88;;;22.88;;
35326;SDS011;21436;52.348;20.928;2023-11-19T12:38:21;58.10;;;26.58;;
35326;SDS011;21436;52.348;20.928;2023-11-19T12:43:39;54.95;;;23.13;;
35326;SDS011;21436;52.348;20.928;2023-11-19T12:46:20;41.47;;;17.83;;
35326;SDS011;21436;52.348;20.928;2023-11-19T12:48:50;56.45;;;24.52;;
35326;SDS011;21436;52.348;20.928;2023-11-19T12:51:19;46.15;;;21.65;;
35326;SDS011;21436;52.348;20.928;2023-11-19T12:53:48;50.35;;;22.00;;
35326;SDS011;21436;52.348;20.928;2023-11-19T12:56:21;50.55;;;22.73;;
35326;SDS011;21436;52.348;20.928;2023-11-19T12:58:50;41.45;;;19.90;;
35326;SDS011;21436;52.348;20.928;2023-11-19T13:01:18;43.63;;;19.95;;
35326;SDS011;21436;52.348;20.928;2023-11-19T13:03:48;57.78;;;25.98;;
35326;SDS011;21436;52.348;20.928;2023-11-19T13:06:17;47.75;;;22.13;;
35326;SDS011;21436;52.348;20.928;2023-11-19T13:08:49;62.60;;;26.25;;
35326;SDS011;21436;52.348;20.928;2023-11-19T13:11:33;56.78;;;25.88;;
35326;SDS011;21436;52.348;20.928;2023-11-19T13:14:03;52.03;;;21.88;;
35326;SDS011;21436;52.348;20.928;2023-11-19T13:16:33;53.60;;;22.92;;
35326;SDS011;21436;52.348;20.928;2023-11-19T13:19:01;43.75;;;19.70;;
35326;SDS011;21436;52.348;20.928;2023-11-19T13:21:30;65.78;;;29.67;;
35326;SDS011;21436;52.348;20.928;2023-11-19T13:23:59;43.60;;;19.95;;
35326;SDS011;21436;52.348;20.928;2023-11-19T13:26:27;41.97;;;18.45;;
35326;SDS011;21436;52.348;20.928;2023-11-19T13:28:55;43.63;;;17.90;;
35326;SDS011;21436;52.348;20.928;2023-11-19T13:31:23;42.17;;;18.58;;
35326;SDS011;21436;52.348;20.928;2023-11-19T13:33:51;43.50;;;17.77;;
35326;SDS011;21436;52.348;20.928;2023-11-19T13:36:20;45.58;;;18.95;;
35326;SDS011;21436;52.348;20.928;2023-11-19T13:38:48;45.00;;;18.75;;
35326;SDS011;21436;52.348;20.928;2023-11-19T13:41:16;57.67;;;21.70;;
35326;SDS011;21436;52.348;20.928;2023-11-19T13:43:45;49.40;;;21.65;;
35326;SDS011;21436;52.348;20.928;2023-11-19T13:46:12;56.88;;;23.40;;
35326;SDS011;21436;52.348;20.928;2023-11-19T13:48:40;55.47;;;22.38;;
35326;SDS011;21436;52.348;20.928;2023-11-19T13:51:08;67.88;;;29.92;;
35326;SDS011;21436;52.348;20.928;2023-11-19T13:53:38;58.60;;;25.98;;
35326;SDS011;21436;52.348;20.928;2023-11-19T13:56:09;52.45;;;20.63;;
35326;SDS011;21436;52.348;20.928;2023-11-19T13:58:37;56.83;;;24.60;;
35326;SDS011;21436;52.348;20.928;2023-11-19T14:01:05;53.83;;;20.20;;
35326;SDS011;21436;52.348;20.928;2023-11-19T14:03:33;57.28;;;22.95;;
35326;SDS011;21436;52.348;20.928;2023-11-19T14:06:02;53.17;;;22.70;;
35326;SDS011;21436;52.348;20.928;2023-11-19T14:08:31;65.50;;;27.92;;
35326;SDS011;21436;52.348;20.928;2023-11-19T14:10:58;65.20;;;26.70;;
35326;SDS011;21436;52.348;20.928;2023-11-19T14:13:27;57.38;;;25.70;;
35326;SDS011;21436;52.348;20.928;2023-11-19T14:15:54;54.95;;;23.38;;
35326;SDS011;21436;52.348;20.928;2023-11-19T14:18:23;58.28;;;24.40;;
35326;SDS011;21436;52.348;20.928;2023-11-19T14:20:51;69.63;;;28.67;;
35326;SDS011;21436;52.348;20.928;2023-11-19T14:23:19;64.40;;;27.48;;
35326;SDS011;21436;52.348;20.928;2023-11-19T14:25:48;64.57;;;26.13;;
35326;SDS011;21436;52.348;20.928;2023-11-19T14:28:17;62.50;;;25.05;;
35326;SDS011;21436;52.348;20.928;2023-11-19T14:30:45;59.88;;;24.80;;
35326;SDS011;21436;52.348;20.928;2023-11-19T14:33:13;63.70;;;25.15;;
35326;SDS011;21436;52.348;20.928;2023-11-19T14:35:41;62.72;;;25.17;;
35326;SDS011;21436;52.348;20.928;2023-11-19T14:38:10;60.58;;;26.92;;
35326;SDS011;21436;52.348;20.928;2023-11-19T14:40:38;71.50;;;28.73;;
35326;SDS011;21436;52.348;20.928;2023-11-19T14:43:09;80.15;;;31.27;;
35326;SDS011;21436;52.348;20.928;2023-11-19T14:45:38;82.78;;;31.95;;
35326;SDS011;21436;52.348;20.928;2023-11-19T14:48:16;64.90;;;27.85;;
35326;SDS011;21436;52.348;20.928;2023-11-19T14:50:45;62.90;;;28.02;;